createdAt,value
2017-10-11T00:00:30.491Z,12.10
2017-10-11T00:02:59.493Z,12.10
2017-10-11T00:05:29.280Z,12.10
2017-10-11T00:07:58.298Z,12.10
2017-10-11T00:10:27.326Z,12.20
2017-10-11T00:12:57.262Z,12.20
2017-10-11T00:15:26.202Z,12.10
2017-10-11T00:17:55.444Z,12.10
2017-10-11T00:20:24.502Z,12.10
2017-10-11T00:22:53.574Z,12.10
2017-10-11T00:25:22.562Z,12.10
2017-10-11T00:27:51.576Z,12.10
2017-10-11T00:30:20.881Z,12.10
2017-10-11T00:32:49.928Z,12.10
2017-10-11T00:35:18.924Z,12.10
2017-10-11T00:37:47.915Z,12.10
2017-10-11T00:40:16.953Z,12.10
2017-10-11T00:42:46.005Z,12.10
2017-10-11T00:45:15.013Z,12.10
2017-10-11T00:47:44.010Z,12.10
2017-10-11T00:50:13.001Z,12.10
2017-10-11T00:52:42.122Z,12.10
2017-10-11T00:55:11.200Z,12.10
2017-10-11T00:57:40.324Z,12.10
2017-10-11T01:00:09.572Z,12.10
2017-10-11T01:02:38.544Z,12.10
2017-10-11T01:05:07.546Z,12.10
2017-10-11T01:07:36.508Z,12.10
2017-10-11T01:10:06.317Z,12.10
2017-10-11T01:12:35.284Z,12.00
2017-10-11T01:16:23.539Z,12.00
2017-10-11T01:18:52.498Z,12.00
2017-10-11T01:21:21.532Z,12.00
2017-10-11T01:23:50.677Z,11.90
2017-10-11T01:26:19.749Z,11.90
2017-10-11T01:28:49.659Z,11.80
2017-10-11T01:31:19.538Z,11.80
2017-10-11T01:33:48.582Z,11.80
2017-10-11T01:36:18.496Z,11.90
2017-10-11T01:38:47.652Z,11.90
2017-10-11T01:41:16.756Z,11.90
2017-10-11T01:44:48.282Z,11.90
2017-10-11T01:47:17.360Z,11.90
2017-10-11T01:49:46.392Z,11.90
2017-10-11T01:52:15.413Z,11.90
2017-10-11T01:54:45.262Z,11.90
2017-10-11T01:57:14.252Z,11.90
2017-10-11T01:59:43.294Z,11.90
2017-10-11T02:02:12.371Z,12.00
2017-10-11T02:04:41.429Z,12.00
2017-10-11T02:07:10.547Z,12.00
2017-10-11T02:09:39.594Z,12.00
2017-10-11T02:12:09.456Z,12.00
2017-10-11T02:14:38.510Z,12.00
2017-10-11T02:17:07.882Z,12.00
2017-10-11T02:19:36.846Z,12.00
2017-10-11T02:22:06.126Z,12.00
2017-10-11T02:24:35.143Z,12.00
2017-10-11T02:27:04.128Z,12.00
2017-10-11T02:29:33.169Z,12.00
2017-10-11T02:32:02.946Z,12.00
2017-10-11T02:34:31.913Z,12.00
2017-10-11T02:37:00.950Z,12.00
2017-10-11T02:39:29.918Z,12.00
2017-10-11T02:41:58.881Z,12.00
2017-10-11T02:44:28.134Z,12.00
2017-10-11T02:46:57.876Z,12.00
2017-10-11T02:49:27.679Z,12.00
2017-10-11T02:51:58.310Z,12.00
2017-10-11T02:54:28.389Z,12.00
2017-10-11T02:56:57.353Z,12.00
2017-10-11T02:59:26.300Z,12.00
2017-10-11T03:01:55.274Z,12.10
2017-10-11T03:04:24.223Z,12.10
2017-10-11T03:06:53.243Z,12.10
2017-10-11T03:09:22.236Z,12.00
2017-10-11T03:11:52.018Z,12.00
2017-10-11T03:14:21.008Z,12.00
2017-10-11T03:16:49.961Z,12.00
2017-10-11T03:19:18.996Z,12.10
2017-10-11T03:21:47.974Z,12.10
2017-10-11T03:24:17.705Z,12.00
2017-10-11T03:26:46.646Z,12.00
2017-10-11T03:29:15.682Z,12.00
2017-10-11T03:31:44.653Z,12.00
2017-10-11T03:34:14.428Z,12.00
2017-10-11T03:36:43.461Z,12.00
2017-10-11T03:39:13.279Z,12.00
2017-10-11T03:41:43.024Z,12.00
2017-10-11T03:44:12.102Z,12.00
2017-10-11T03:46:41.146Z,12.00
2017-10-11T03:49:10.121Z,12.00
2017-10-11T03:51:39.106Z,12.00
2017-10-11T03:54:08.083Z,11.90
2017-10-11T03:56:37.087Z,11.90
2017-10-11T03:59:06.071Z,11.90
2017-10-11T04:01:35.074Z,11.90
2017-10-11T04:04:04.073Z,11.90
2017-10-11T04:06:33.062Z,11.90
2017-10-11T04:09:02.154Z,11.90
2017-10-11T04:11:31.168Z,11.90
2017-10-11T04:14:00.163Z,11.90
2017-10-11T04:16:29.142Z,11.90
2017-10-11T04:18:58.191Z,11.80
2017-10-11T04:21:28.274Z,11.90
2017-10-11T04:23:58.100Z,11.90
2017-10-11T04:26:27.954Z,11.90
2017-10-11T04:28:57.852Z,11.90
2017-10-11T04:31:27.669Z,11.90
2017-10-11T04:33:56.762Z,11.90
2017-10-11T04:36:26.652Z,11.90
2017-10-11T04:38:56.483Z,11.90
2017-10-11T04:41:26.330Z,11.90
2017-10-11T04:43:55.386Z,11.90
2017-10-11T04:46:25.215Z,11.90
2017-10-11T04:48:54.271Z,11.80
2017-10-11T04:51:23.326Z,11.90
2017-10-11T04:53:52.322Z,11.80
2017-10-11T04:56:21.331Z,11.90
2017-10-11T04:58:51.138Z,11.90
2017-10-11T05:01:24.139Z,11.80
2017-10-11T05:03:53.094Z,11.90
2017-10-11T05:06:22.098Z,11.80
2017-10-11T05:08:51.089Z,11.80
2017-10-11T05:11:20.128Z,11.80
2017-10-11T05:13:49.895Z,11.70
2017-10-11T05:16:19.782Z,11.70
2017-10-11T05:18:48.803Z,11.70
2017-10-11T05:21:17.832Z,11.60
2017-10-11T05:23:46.885Z,11.60
2017-10-11T05:26:15.943Z,11.60
2017-10-11T05:28:45.691Z,11.50
2017-10-11T05:31:14.710Z,11.50
2017-10-11T05:33:43.710Z,11.50
2017-10-11T05:36:12.743Z,11.40
2017-10-11T05:38:42.508Z,11.50
2017-10-11T05:41:11.590Z,11.40
2017-10-11T05:43:40.623Z,11.50
2017-10-11T05:46:10.490Z,11.60
2017-10-11T05:48:39.501Z,11.60
2017-10-11T05:51:08.640Z,11.60
2017-10-11T05:53:37.644Z,11.60
2017-10-11T05:56:06.681Z,11.60
2017-10-11T05:58:35.692Z,11.70
2017-10-11T06:01:04.693Z,11.70
2017-10-11T06:03:34.481Z,11.70
2017-10-11T06:06:03.527Z,11.70
2017-10-11T06:08:33.294Z,11.70
2017-10-11T06:11:02.381Z,11.60
2017-10-11T06:13:31.488Z,11.70
2017-10-11T06:16:00.506Z,11.70
2017-10-11T06:18:30.388Z,11.70
2017-10-11T06:20:59.382Z,11.70
2017-10-11T06:23:28.535Z,11.70
2017-10-11T06:25:57.611Z,11.70
2017-10-11T06:28:26.572Z,11.70
2017-10-11T06:30:55.698Z,11.70
2017-10-11T06:33:25.476Z,11.80
2017-10-11T06:35:54.462Z,11.70
2017-10-11T06:38:23.644Z,11.80
2017-10-11T06:40:52.934Z,11.80
2017-10-11T06:43:22.004Z,11.90
2017-10-11T06:45:51.144Z,12.00
2017-10-11T06:48:20.221Z,12.20
2017-10-11T06:50:49.298Z,12.10
2017-10-11T06:53:19.143Z,12.10
2017-10-11T06:55:48.329Z,12.10
2017-10-11T06:58:17.421Z,12.00
2017-10-11T07:00:47.165Z,12.10
2017-10-11T07:03:16.982Z,12.10
2017-10-11T07:05:45.962Z,12.00
2017-10-11T07:08:15.017Z,12.10
2017-10-11T07:10:44.102Z,12.10
2017-10-11T07:13:13.217Z,12.10
2017-10-11T07:15:42.988Z,12.10
2017-10-11T07:18:12.765Z,12.10
2017-10-11T07:20:41.885Z,12.10
2017-10-11T07:23:11.713Z,12.20
2017-10-11T07:25:41.474Z,12.20
2017-10-11T07:28:11.812Z,12.10
2017-10-11T07:30:41.649Z,12.20
2017-10-11T07:33:11.517Z,12.20
2017-10-11T07:35:40.500Z,12.20
2017-10-11T07:38:09.470Z,12.30
2017-10-11T07:40:38.565Z,12.30
2017-10-11T07:43:07.645Z,12.40
2017-10-11T07:45:37.455Z,12.60
2017-10-11T07:48:07.298Z,12.60
2017-10-11T07:50:36.342Z,12.60
2017-10-11T07:53:05.426Z,12.70
2017-10-11T07:55:34.537Z,12.80
2017-10-11T07:58:03.603Z,12.80
2017-10-11T08:00:33.062Z,12.90
2017-10-11T08:03:02.091Z,13.10
2017-10-11T08:05:31.119Z,13.30
2017-10-11T08:08:00.193Z,13.70
2017-10-11T08:10:29.347Z,14.30
2017-10-11T08:12:59.110Z,15.30
2017-10-11T08:15:28.141Z,15.20
2017-10-11T08:17:57.938Z,15.50
2017-10-11T08:20:27.793Z,16.10
2017-10-11T08:22:57.594Z,16.70
2017-10-11T08:25:27.060Z,16.70
2017-10-11T08:27:56.885Z,16.80
2017-10-11T08:30:26.763Z,16.90
2017-10-11T08:32:55.759Z,16.90
2017-10-11T08:38:24.813Z,17.00
2017-10-11T08:40:54.716Z,16.10
2017-10-11T08:43:23.759Z,16.00
2017-10-11T08:45:52.949Z,15.30
2017-10-11T08:48:22.911Z,14.70
2017-10-11T08:50:52.006Z,14.70
2017-10-11T08:53:21.100Z,14.50
2017-10-11T08:55:50.286Z,14.30
2017-10-11T08:58:20.082Z,14.20
2017-10-11T09:00:49.306Z,14.20
2017-10-11T09:03:19.139Z,14.20
2017-10-11T09:05:48.909Z,14.10
2017-10-11T09:08:18.101Z,14.10
2017-10-11T09:10:47.126Z,14.10
2017-10-11T09:13:16.168Z,14.10
2017-10-11T09:15:45.218Z,14.10
2017-10-11T09:18:14.388Z,14.00
2017-10-11T09:20:44.202Z,14.00
2017-10-11T09:23:13.247Z,14.00
2017-10-11T09:25:42.313Z,14.00
2017-10-11T09:28:13.326Z,14.00
2017-10-11T09:30:42.568Z,14.00
2017-10-11T09:33:12.532Z,14.10
2017-10-11T09:35:41.744Z,14.10
2017-10-11T09:38:11.619Z,14.00
2017-10-11T09:40:41.430Z,14.00
2017-10-11T09:43:10.426Z,13.90
2017-10-11T09:45:40.328Z,13.70
2017-10-11T09:48:09.411Z,13.70
2017-10-11T09:50:38.458Z,13.70
2017-10-11T09:53:07.632Z,13.70
2017-10-11T09:55:36.611Z,13.70
2017-10-11T09:58:05.644Z,13.70
2017-10-11T10:00:34.711Z,13.70
2017-10-11T10:03:03.853Z,13.70
2017-10-11T10:05:32.882Z,13.80
2017-10-11T10:08:02.001Z,13.90
2017-10-11T10:10:31.828Z,13.90
2017-10-11T10:13:01.119Z,13.90
2017-10-11T10:15:30.165Z,13.90
2017-10-11T10:18:05.566Z,13.90
2017-10-11T10:20:34.616Z,13.90
2017-10-11T10:23:04.472Z,13.90
2017-10-11T10:25:34.317Z,13.90
2017-10-11T10:28:04.406Z,13.80
2017-10-11T10:30:34.421Z,13.90
2017-10-11T10:33:03.758Z,13.80
2017-10-11T10:35:33.712Z,14.00
2017-10-11T10:38:03.912Z,14.10
2017-10-11T10:40:32.997Z,14.00
2017-10-11T10:43:02.898Z,14.10
2017-10-11T10:45:32.045Z,14.10
2017-10-11T10:48:01.105Z,14.20
2017-10-11T10:50:30.824Z,14.20
2017-10-11T10:53:00.057Z,14.20
2017-10-11T10:55:29.248Z,14.20
2017-10-11T10:57:58.238Z,14.20
2017-10-11T11:00:27.335Z,14.30
2017-10-11T11:02:56.544Z,14.30
2017-10-11T11:05:25.561Z,14.40
2017-10-11T11:08:09.178Z,14.40
2017-10-11T11:10:39.019Z,14.30
2017-10-11T11:13:08.879Z,14.30
2017-10-11T11:15:39.451Z,14.30
2017-10-11T11:18:09.456Z,14.40
2017-10-11T11:20:39.248Z,14.40
2017-10-11T11:23:08.326Z,14.30
2017-10-11T11:25:38.099Z,14.20
2017-10-11T11:28:10.478Z,14.20
2017-10-11T11:30:40.432Z,14.30
2017-10-11T11:33:09.938Z,14.30
2017-10-11T11:35:39.747Z,14.30
2017-10-11T11:38:09.558Z,14.20
2017-10-11T11:40:38.593Z,14.10
2017-10-11T11:43:07.590Z,14.10
2017-10-11T11:45:37.051Z,14.10
2017-10-11T11:48:06.469Z,14.10
2017-10-11T11:50:35.444Z,14.10
2017-10-11T11:53:04.483Z,14.10
2017-10-11T11:55:33.580Z,14.00
2017-10-11T11:58:02.591Z,13.90
2017-10-11T12:00:31.669Z,13.80
2017-10-11T12:03:01.848Z,13.80
2017-10-11T12:05:30.874Z,13.80
2017-10-11T12:07:59.880Z,13.80
2017-10-11T12:10:29.678Z,13.70
2017-10-11T12:12:59.460Z,13.60
2017-10-11T12:15:28.820Z,13.60
2017-10-11T12:17:57.816Z,13.60
2017-10-11T12:20:27.691Z,13.60
2017-10-11T12:22:56.695Z,13.60
2017-10-11T12:25:25.726Z,13.70
2017-10-11T12:27:55.568Z,13.70
2017-10-11T12:30:25.422Z,13.70
2017-10-11T12:32:54.496Z,13.60
2017-10-11T12:35:23.514Z,13.70
2017-10-11T12:37:52.650Z,13.70
2017-10-11T12:40:21.657Z,13.70
2017-10-11T12:42:50.647Z,13.70
2017-10-11T12:45:19.617Z,13.80
2017-10-11T12:47:49.347Z,13.80
2017-10-11T12:50:18.399Z,13.70
2017-10-11T12:52:48.244Z,13.60
2017-10-11T12:55:18.310Z,13.60
2017-10-11T12:57:48.242Z,13.60
2017-10-11T13:00:17.275Z,13.50
2017-10-11T13:02:46.300Z,13.60
2017-10-11T13:05:15.326Z,13.60
2017-10-11T13:07:44.534Z,13.60
2017-10-11T13:10:14.545Z,13.60
2017-10-11T13:12:44.447Z,13.60
2017-10-11T13:15:14.421Z,13.60
2017-10-11T13:17:43.552Z,13.60
2017-10-11T13:20:13.660Z,13.60
2017-10-11T13:22:42.809Z,13.60
2017-10-11T13:25:11.820Z,13.60
2017-10-11T13:27:41.561Z,13.50
2017-10-11T13:30:11.384Z,13.60
2017-10-11T13:32:40.581Z,13.50
2017-10-11T13:35:10.171Z,13.60
2017-10-11T13:37:43.140Z,13.60
2017-10-11T13:40:13.007Z,13.50
2017-10-11T13:42:42.853Z,13.60
2017-10-11T13:45:12.600Z,13.60
2017-10-11T13:47:41.623Z,13.50
2017-10-11T13:50:11.395Z,13.60
2017-10-11T13:52:41.961Z,13.50
2017-10-11T13:55:11.848Z,13.50
2017-10-11T13:57:40.949Z,13.40
2017-10-11T14:00:11.156Z,13.50
2017-10-11T14:02:40.241Z,13.50
2017-10-11T14:05:10.090Z,13.60
2017-10-11T14:07:39.913Z,13.60
2017-10-11T14:10:08.911Z,13.60
2017-10-11T14:12:38.020Z,13.60
2017-10-11T14:15:07.063Z,13.60
2017-10-11T14:17:36.235Z,13.50
2017-10-11T14:20:05.261Z,13.50
2017-10-11T14:22:34.324Z,13.50
2017-10-11T14:25:03.994Z,13.50
2017-10-11T14:27:33.070Z,13.50
2017-10-11T14:30:02.093Z,13.40
2017-10-11T14:32:32.057Z,13.40
2017-10-11T14:35:01.203Z,13.40
2017-10-11T14:37:30.997Z,13.30
2017-10-11T14:40:00.319Z,13.30
2017-10-11T14:42:30.164Z,13.20
2017-10-11T14:45:05.237Z,13.20
2017-10-11T14:47:34.340Z,13.20
2017-10-11T14:50:04.016Z,13.20
2017-10-11T14:52:33.096Z,13.20
2017-10-11T14:55:02.349Z,13.10
2017-10-11T14:57:31.403Z,13.10
2017-10-11T15:00:06.393Z,13.10
2017-10-11T15:02:35.566Z,13.10
2017-10-11T15:05:05.558Z,13.10
2017-10-11T15:07:35.477Z,13.10
2017-10-11T15:10:05.257Z,13.00
2017-10-11T15:12:35.132Z,13.10
2017-10-11T15:15:04.570Z,13.10
2017-10-11T15:17:33.621Z,13.10
2017-10-11T15:20:02.700Z,13.10
2017-10-11T15:22:32.791Z,13.00
2017-10-11T15:25:02.181Z,13.00
2017-10-11T15:27:31.228Z,13.00
2017-10-11T15:30:00.992Z,13.00
2017-10-11T15:32:30.119Z,12.90
2017-10-11T15:34:59.137Z,13.00
2017-10-11T15:37:28.322Z,12.90
2017-10-11T15:40:02.691Z,12.90
2017-10-11T15:42:32.501Z,12.80
2017-10-11T15:45:01.518Z,12.80
2017-10-11T15:47:31.318Z,12.80
2017-10-11T15:50:00.318Z,12.70
2017-10-11T15:52:29.519Z,12.80
2017-10-11T15:54:58.653Z,12.80
2017-10-11T15:57:27.669Z,12.80
2017-10-11T15:59:57.570Z,12.80
2017-10-11T16:02:27.537Z,12.80
2017-10-11T16:04:56.628Z,12.70
2017-10-11T16:07:25.769Z,12.80
2017-10-11T16:09:55.787Z,12.70
2017-10-11T16:12:24.881Z,12.60
2017-10-11T16:14:54.798Z,12.60
2017-10-11T16:17:24.675Z,12.60
2017-10-11T16:19:53.718Z,12.60
2017-10-11T16:22:23.482Z,12.60
2017-10-11T16:24:52.501Z,12.60
2017-10-11T16:27:22.408Z,12.60
2017-10-11T16:29:51.412Z,12.60
2017-10-11T16:32:22.662Z,12.50
2017-10-11T16:34:53.787Z,12.60
2017-10-11T16:37:22.863Z,12.60
2017-10-11T16:39:52.211Z,12.60
2017-10-11T16:42:22.340Z,12.60
2017-10-11T16:44:52.120Z,12.50
2017-10-11T16:47:21.134Z,12.50
2017-10-11T16:49:50.996Z,12.40
2017-10-11T16:52:20.771Z,12.50
2017-10-11T16:54:49.874Z,12.40
2017-10-11T16:57:19.073Z,12.50
2017-10-11T16:59:51.023Z,12.40
2017-10-11T17:02:20.074Z,12.40
2017-10-11T17:04:49.345Z,12.50
2017-10-11T17:07:18.821Z,12.50
2017-10-11T17:09:51.746Z,12.50
2017-10-11T17:12:20.966Z,12.40
2017-10-11T17:14:50.062Z,12.40
2017-10-11T17:17:19.204Z,12.40
2017-10-11T17:19:48.994Z,12.40
2017-10-11T17:22:18.892Z,12.40
2017-10-11T17:24:48.301Z,12.40
2017-10-11T17:27:18.046Z,12.40
2017-10-11T17:29:47.945Z,12.40
2017-10-11T17:32:17.807Z,12.40
2017-10-11T17:34:47.691Z,12.50
2017-10-11T17:37:16.784Z,12.40
2017-10-11T17:39:45.975Z,12.50
2017-10-11T17:42:16.228Z,12.50
2017-10-11T17:44:45.361Z,12.40
2017-10-11T17:47:16.082Z,12.40
2017-10-11T17:49:48.279Z,12.40
2017-10-11T17:52:18.278Z,12.40
2017-10-11T17:54:47.853Z,12.30
2017-10-11T17:57:17.836Z,12.40
2017-10-11T17:59:47.528Z,12.40
2017-10-11T18:02:17.506Z,12.30
2017-10-11T18:04:46.573Z,12.20
2017-10-11T18:07:15.647Z,12.40
2017-10-11T18:09:45.546Z,12.30
2017-10-11T18:12:15.444Z,12.30
2017-10-11T18:14:49.901Z,12.30
2017-10-11T18:17:18.974Z,12.30
2017-10-11T18:19:49.072Z,12.40
2017-10-11T18:22:18.234Z,12.30
2017-10-11T18:24:48.204Z,12.40
2017-10-11T18:27:17.308Z,12.40
2017-10-11T18:29:47.067Z,12.40
2017-10-11T18:32:16.282Z,12.40
2017-10-11T18:34:45.244Z,12.30
2017-10-11T18:37:14.740Z,12.30
2017-10-11T18:39:45.413Z,12.30
2017-10-11T18:42:15.391Z,12.40
2017-10-11T18:44:44.492Z,12.30
2017-10-11T18:47:14.041Z,12.30
2017-10-11T18:49:43.070Z,12.30
2017-10-11T18:52:12.201Z,12.30
2017-10-11T18:54:41.862Z,12.30
2017-10-11T18:57:11.622Z,12.30
2017-10-11T18:59:40.810Z,12.30
2017-10-11T19:02:10.642Z,12.30
2017-10-11T19:04:40.477Z,12.40
2017-10-11T19:07:10.060Z,12.30
2017-10-11T19:09:39.353Z,12.40
2017-10-11T19:12:08.962Z,12.40
2017-10-11T19:14:40.746Z,12.30
2017-10-11T19:17:10.506Z,12.30
2017-10-11T19:19:39.582Z,12.30
2017-10-11T19:22:09.985Z,12.30
2017-10-11T19:24:40.722Z,12.30
2017-10-11T19:27:09.809Z,12.30
2017-10-11T19:29:39.386Z,12.30
2017-10-11T19:32:08.797Z,12.30
2017-10-11T19:34:38.006Z,12.30
2017-10-11T19:37:07.597Z,12.30
2017-10-11T19:39:37.505Z,12.30
2017-10-11T19:42:16.075Z,12.30
2017-10-11T19:44:47.180Z,12.20
2017-10-11T19:47:17.892Z,12.20
2017-10-11T19:49:48.133Z,12.20
2017-10-11T19:52:17.483Z,12.20
2017-10-11T19:54:47.980Z,12.20
2017-10-11T19:57:17.847Z,12.20
2017-10-11T19:59:47.845Z,12.20
2017-10-11T20:02:17.770Z,12.20
2017-10-11T20:04:51.457Z,12.20
2017-10-11T20:07:29.199Z,12.20
2017-10-11T20:09:58.630Z,12.30
2017-10-11T20:12:27.835Z,12.30
2017-10-11T20:14:57.139Z,12.20
2017-10-11T20:17:27.355Z,12.20
2017-10-11T20:19:57.778Z,12.20
2017-10-11T20:22:26.911Z,12.20
2017-10-11T20:24:56.078Z,12.20
2017-10-11T20:27:25.469Z,12.20
2017-10-11T20:29:54.472Z,12.20
2017-10-11T20:32:24.242Z,12.20
2017-10-11T20:34:53.247Z,12.20
2017-10-11T20:37:22.283Z,12.20
2017-10-11T20:39:52.036Z,12.20
2017-10-11T20:42:21.098Z,12.20
2017-10-11T20:44:50.239Z,12.30
2017-10-11T20:47:20.551Z,12.20
2017-10-11T20:49:49.808Z,12.20
2017-10-11T20:52:18.842Z,12.20
2017-10-11T20:54:47.911Z,12.20
2017-10-11T20:57:16.980Z,12.20
2017-10-11T20:59:46.781Z,12.30
2017-10-11T21:02:16.564Z,12.30
2017-10-11T21:04:45.545Z,12.20
2017-10-11T21:07:21.212Z,12.30
2017-10-11T21:09:50.194Z,12.40
2017-10-11T21:12:19.345Z,12.40
2017-10-11T21:14:49.376Z,12.40
2017-10-11T21:17:19.170Z,12.40
2017-10-11T21:19:48.994Z,12.40
2017-10-11T21:22:18.809Z,12.40
2017-10-11T21:24:47.926Z,12.40
2017-10-11T21:27:17.032Z,12.40
2017-10-11T21:29:46.024Z,12.40
2017-10-11T21:32:15.093Z,12.40
2017-10-11T21:34:44.074Z,12.30
2017-10-11T21:37:13.807Z,12.20
2017-10-11T21:39:58.914Z,12.20
2017-10-11T21:42:27.947Z,12.30
2017-10-11T21:44:57.828Z,12.40
2017-10-11T21:47:27.032Z,12.40
2017-10-11T21:49:56.038Z,12.40
2017-10-11T21:52:25.870Z,12.50
2017-10-11T21:54:54.870Z,12.50
2017-10-11T21:57:23.863Z,12.50
2017-10-11T21:59:52.815Z,12.50
2017-10-11T22:02:21.828Z,12.50
2017-10-11T22:04:51.613Z,12.60
2017-10-11T22:07:20.685Z,12.50
2017-10-11T22:09:49.724Z,12.60
2017-10-11T22:12:19.576Z,12.50
2017-10-11T22:14:48.598Z,12.40
2017-10-11T22:17:17.642Z,12.50
2017-10-11T22:19:47.454Z,12.50
2017-10-11T22:22:17.301Z,12.40
2017-10-11T22:24:47.092Z,12.40
2017-10-11T22:27:16.107Z,12.40
2017-10-11T22:29:45.955Z,12.40
2017-10-11T22:32:15.764Z,12.50
2017-10-11T22:34:44.709Z,12.40
2017-10-11T22:37:13.744Z,12.40
2017-10-11T22:39:43.053Z,12.40
2017-10-11T22:42:12.034Z,12.40
2017-10-11T22:44:42.795Z,12.40
2017-10-11T22:47:12.547Z,12.40
2017-10-11T22:49:41.663Z,12.40
2017-10-11T22:52:10.726Z,12.40
2017-10-11T22:54:39.820Z,12.40
2017-10-11T22:57:09.585Z,12.40
2017-10-11T22:59:38.670Z,12.40
2017-10-11T23:02:07.974Z,12.40
2017-10-11T23:04:37.012Z,12.40
2017-10-11T23:07:05.966Z,12.40
2017-10-11T23:09:34.942Z,12.40
2017-10-11T23:12:03.981Z,12.30
2017-10-11T23:14:33.725Z,12.20
2017-10-11T23:17:02.742Z,12.20
2017-10-11T23:19:31.815Z,12.20
2017-10-11T23:22:00.838Z,12.20
2017-10-11T23:24:29.853Z,12.20
2017-10-11T23:26:58.918Z,12.10
2017-10-11T23:29:27.909Z,12.20
2017-10-11T23:31:56.880Z,12.20
2017-10-11T23:34:25.856Z,12.20
2017-10-11T23:36:54.824Z,12.30
2017-10-11T23:39:24.582Z,12.30
2017-10-11T23:41:53.593Z,12.20
2017-10-11T23:44:22.571Z,12.20
2017-10-11T23:46:51.636Z,12.30
2017-10-11T23:49:20.657Z,12.30
2017-10-11T23:51:49.964Z,12.30
2017-10-11T23:54:18.990Z,12.30
2017-10-11T23:56:47.984Z,12.30
2017-10-11T23:59:17.758Z,12.30
